Time;durP1;ratioP1;P1;durP2;ratioP2;P2;SDS_P1;SDS_P2;PMS_P1;PMS_P2;Temp;Humidity;BMP_temperature;BMP_pressure;BME280_temperature;BME280_humidity;BME280_pressure;Samples;Min_cycle;Max_cycle;Signal;HPM_P1;HPM_P2
2023/12/11 00:01:46;;;;;;;43.35;7.25;;;9.20;99.90;;;;;;5005460;28;20078;-74
2023/12/11 00:04:12;;;;;;;38.35;6.47;;;9.20;99.90;;;;;;5004201;28;20038;-74
2023/12/11 00:06:38;;;;;;;44.53;6.25;;;9.20;99.90;;;;;;5011655;28;20037;-74
2023/12/11 00:09:03;;;;;;;37.40;6.88;;;9.20;99.90;;;;;;5008690;28;20418;-74
2023/12/11 00:11:29;;;;;;;34.95;5.85;;;9.20;99.90;;;;;;5003712;28;20034;-74
2023/12/11 00:13:54;;;;;;;41.88;6.65;;;9.20;99.90;;;;;;5005403;28;20045;-74
2023/12/11 00:16:20;;;;;;;36.28;5.60;;;9.20;99.90;;;;;;4999003;28;20042;-74
2023/12/11 00:18:46;;;;;;;42.47;5.85;;;9.20;99.90;;;;;;4995449;28;20042;-74
2023/12/11 00:21:11;;;;;;;38.88;5.97;;;9.20;99.90;;;;;;4997131;28;20560;-74
2023/12/11 00:23:37;;;;;;;46.70;6.47;;;9.20;99.90;;;;;;5003553;28;20442;-74
2023/12/11 00:26:02;;;;;;;56.20;8.07;;;9.10;99.90;;;;;;5000455;28;20038;-74
2023/12/11 00:28:28;;;;;;;40.63;5.55;;;9.20;99.90;;;;;;4995767;28;20038;-74
2023/12/11 00:30:54;;;;;;;47.20;6.35;;;9.20;99.90;;;;;;5000151;28;20042;-74
2023/12/11 00:33:19;;;;;;;36.10;6.07;;;9.20;99.90;;;;;;5005363;28;20095;-74
2023/12/11 00:35:46;;;;;;;33.85;5.88;;;9.20;99.90;;;;;;4999685;28;20050;-74
2023/12/11 00:38:12;;;;;;;36.08;6.25;;;9.20;99.90;;;;;;5009997;28;20030;-74
2023/12/11 00:40:37;;;;;;;34.75;5.90;;;9.20;99.90;;;;;;4981553;28;20045;-74
2023/12/11 00:43:03;;;;;;;37.78;5.80;;;9.20;99.90;;;;;;5002133;28;20052;-74
2023/12/11 00:45:28;;;;;;;37.33;6.20;;;9.20;99.90;;;;;;5003759;28;20487;-74
2023/12/11 00:47:54;;;;;;;38.53;6.72;;;9.10;99.90;;;;;;5006230;28;20048;-75
2023/12/11 00:50:20;;;;;;;42.20;5.65;;;9.10;99.90;;;;;;4988492;28;20372;-75
2023/12/11 00:52:45;;;;;;;43.67;6.05;;;9.10;99.90;;;;;;5001734;28;20073;-75
2023/12/11 00:55:11;;;;;;;44.28;5.68;;;9.10;99.90;;;;;;4999350;28;20045;-75
2023/12/11 00:57:36;;;;;;;42.53;6.65;;;9.10;99.90;;;;;;5001694;28;20034;-75
2023/12/11 01:00:02;;;;;;;32.38;5.60;;;9.10;99.90;;;;;;5000960;28;20041;-75
2023/12/11 01:02:28;;;;;;;34.28;5.30;;;9.10;99.90;;;;;;5003714;28;20048;-74
2023/12/11 01:04:54;;;;;;;34.50;5.00;;;9.10;99.90;;;;;;5002533;28;20046;-75
2023/12/11 01:07:20;;;;;;;41.13;6.05;;;9.10;99.90;;;;;;5006334;28;20639;-75
2023/12/11 01:09:45;;;;;;;30.63;5.20;;;9.10;99.90;;;;;;4998071;28;20042;-75
2023/12/11 01:12:11;;;;;;;41.05;6.10;;;9.10;99.90;;;;;;5012818;28;20104;-75
2023/12/11 01:14:37;;;;;;;42.80;7.15;;;9.10;99.90;;;;;;5002895;28;20121;-75
2023/12/11 01:17:03;;;;;;;29.92;6.10;;;9.20;99.90;;;;;;4996705;28;20046;-75
2023/12/11 01:19:29;;;;;;;47.20;6.72;;;9.10;99.90;;;;;;5004712;28;20049;-75
2023/12/11 01:21:54;;;;;;;40.15;6.70;;;9.20;99.90;;;;;;5004139;28;20042;-75
2023/12/11 01:24:20;;;;;;;36.63;6.75;;;9.20;99.90;;;;;;4998316;28;20046;-75
2023/12/11 01:26:45;;;;;;;41.92;7.13;;;9.20;99.90;;;;;;4994849;28;20057;-75
2023/12/11 01:29:11;;;;;;;42.88;6.00;;;9.40;99.90;;;;;;5001575;28;20048;-74
2023/12/11 01:31:36;;;;;;;49.30;6.85;;;9.30;99.90;;;;;;5012594;28;20116;-75
2023/12/11 01:34:02;;;;;;;42.80;6.25;;;9.30;99.90;;;;;;5000702;28;20049;-75
2023/12/11 01:36:27;;;;;;;39.92;6.97;;;9.30;99.90;;;;;;5005107;28;20053;-75
2023/12/11 01:38:53;;;;;;;43.30;6.07;;;9.30;99.90;;;;;;4997561;28;20049;-75
2023/12/11 01:41:19;;;;;;;43.72;7.43;;;9.30;99.90;;;;;;5010026;28;20046;-75
2023/12/11 01:43:55;;;;;;;49.72;6.95;;;9.30;99.90;;;;;;4994171;28;20042;-75
2023/12/11 01:46:21;;;;;;;35.95;6.60;;;9.40;99.90;;;;;;4997702;28;20045;-75
2023/12/11 01:48:49;;;;;;;37.20;6.13;;;9.40;99.90;;;;;;4995783;28;20049;-75
2023/12/11 01:51:16;;;;;;;44.90;8.38;;;9.40;99.90;;;;;;5008731;28;20042;-75
2023/12/11 01:53:43;;;;;;;47.25;7.38;;;9.40;99.90;;;;;;5000580;28;20041;-75
2023/12/11 01:56:09;;;;;;;42.75;6.70;;;9.40;99.90;;;;;;4992892;28;20046;-75
2023/12/11 01:58:35;;;;;;;51.63;7.50;;;9.40;99.90;;;;;;4993393;28;20049;-75
2023/12/11 02:01:01;;;;;;;38.17;6.63;;;9.40;99.90;;;;;;5002967;28;20142;-75
2023/12/11 02:03:27;;;;;;;44.88;7.63;;;9.40;99.90;;;;;;5007067;28;20125;-75
2023/12/11 02:05:53;;;;;;;50.25;8.48;;;9.40;99.90;;;;;;5006673;28;20125;-76
2023/12/11 02:08:18;;;;;;;49.67;7.53;;;9.40;99.90;;;;;;5005040;28;20499;-75
2023/12/11 02:10:44;;;;;;;43.40;6.93;;;9.50;99.90;;;;;;5001961;28;20037;-75
2023/12/11 02:13:10;;;;;;;49.75;6.85;;;9.40;99.90;;;;;;5000557;28;20044;-74
2023/12/11 02:15:36;;;;;;;51.17;7.63;;;9.50;99.90;;;;;;4998003;28;20038;-74
2023/12/11 02:18:02;;;;;;;46.38;8.52;;;9.50;99.90;;;;;;4990934;28;20088;-74
2023/12/11 02:20:28;;;;;;;53.20;7.72;;;9.50;99.90;;;;;;5002897;28;20498;-74
2023/12/11 02:22:55;;;;;;;49.45;7.40;;;9.50;99.90;;;;;;4995810;28;20561;-75
2023/12/11 02:25:22;;;;;;;47.03;7.03;;;9.50;99.90;;;;;;5003375;28;20514;-75
2023/12/11 02:27:48;;;;;;;45.17;7.75;;;9.60;99.90;;;;;;5009542;28;20066;-75
2023/12/11 02:30:13;;;;;;;51.75;8.48;;;9.50;99.90;;;;;;5002040;28;20033;-75
2023/12/11 02:32:39;;;;;;;42.38;6.90;;;9.60;99.90;;;;;;5004140;28;20034;-75
2023/12/11 02:35:05;;;;;;;55.10;7.82;;;9.60;99.90;;;;;;4998439;28;20042;-75
2023/12/11 02:37:30;;;;;;;51.53;7.90;;;9.60;99.90;;;;;;5000789;28;20042;-75
2023/12/11 02:39:56;;;;;;;43.25;8.25;;;9.60;99.90;;;;;;5004415;28;20052;-75
2023/12/11 02:42:21;;;;;;;48.92;8.48;;;9.60;99.90;;;;;;5008916;28;20053;-75
2023/12/11 02:44:47;;;;;;;54.63;7.50;;;9.60;99.90;;;;;;4979473;28;20553;-75
2023/12/11 02:47:12;;;;;;;44.85;7.57;;;9.70;99.90;;;;;;4998243;28;20166;-75
2023/12/11 02:49:38;;;;;;;52.00;8.38;;;9.70;99.90;;;;;;5005783;28;20380;-75
2023/12/11 02:52:04;;;;;;;54.22;7.55;;;9.70;99.90;;;;;;5004795;28;20050;-75
2023/12/11 02:54:29;;;;;;;52.33;9.15;;;9.70;99.90;;;;;;4992680;28;20045;-75
2023/12/11 02:56:55;;;;;;;49.25;7.60;;;9.70;99.90;;;;;;4996576;28;20042;-75
2023/12/11 02:59:20;;;;;;;41.58;7.90;;;9.80;99.90;;;;;;4997726;28;20046;-75
2023/12/11 03:01:46;;;;;;;54.00;7.45;;;9.70;99.90;;;;;;5010212;28;20041;-75
2023/12/11 03:04:11;;;;;;;45.97;8.02;;;9.70;99.90;;;;;;4995588;28;20503;-75
2023/12/11 03:06:37;;;;;;;38.08;6.63;;;9.70;99.90;;;;;;4992345;28;20112;-75
2023/12/11 03:09:03;;;;;;;46.92;8.23;;;9.70;99.90;;;;;;4996848;28;20034;-75
2023/12/11 03:11:29;;;;;;;44.08;8.57;;;9.80;99.90;;;;;;5008467;28;20041;-75
2023/12/11 03:13:55;;;;;;;44.88;7.47;;;9.70;99.90;;;;;;4996234;28;20411;-75
2023/12/11 03:16:20;;;;;;;45.33;7.22;;;9.70;99.90;;;;;;5000298;28;20035;-75
2023/12/11 03:18:46;;;;;;;42.92;7.38;;;9.70;99.90;;;;;;4991990;28;20157;-75
2023/12/11 03:21:11;;;;;;;51.35;7.38;;;9.60;99.90;;;;;;5008523;28;20057;-75
2023/12/11 03:23:39;;;;;;;52.15;8.85;;;9.60;99.90;;;;;;5007905;28;20049;-75
2023/12/11 03:26:04;;;;;;;52.55;8.57;;;9.60;99.90;;;;;;4997110;28;20042;-75
2023/12/11 03:28:30;;;;;;;56.33;7.18;;;9.60;99.90;;;;;;5001850;28;20037;-75
2023/12/11 03:30:55;;;;;;;44.25;7.80;;;9.60;99.90;;;;;;4983510;28;20462;-75
2023/12/11 03:33:21;;;;;;;44.75;7.55;;;9.60;99.90;;;;;;4996694;28;20038;-74
2023/12/11 03:35:46;;;;;;;36.72;6.78;;;9.60;99.90;;;;;;4999970;28;20422;-74
2023/12/11 03:38:12;;;;;;;37.10;5.72;;;10.50;99.90;;;;;;5011228;28;20384;-73
2023/12/11 03:40:38;;;;;;;39.78;6.10;;;9.60;99.90;;;;;;5003865;28;20088;-74
2023/12/11 03:43:03;;;;;;;38.83;6.60;;;9.50;99.90;;;;;;5004519;28;20053;-74
2023/12/11 03:45:29;;;;;;;45.30;7.32;;;9.60;99.90;;;;;;4995022;28;20108;-74
2023/12/11 03:47:54;;;;;;;35.63;6.78;;;9.50;99.90;;;;;;4990919;28;20112;-74
2023/12/11 03:50:20;;;;;;;50.88;6.95;;;9.50;99.90;;;;;;5008234;28;20117;-74
2023/12/11 03:52:45;;;;;;;53.20;8.50;;;9.50;99.90;;;;;;5028864;22;20044;-64
2023/12/11 03:55:11;;;;;;;43.67;7.13;;;9.50;99.90;;;;;;5067989;28;20037;-64
2023/12/11 03:57:37;;;;;;;44.47;6.80;;;9.50;99.90;;;;;;5080764;28;20040;-64
2023/12/11 04:00:03;;;;;;;36.75;6.55;;;9.40;99.90;;;;;;5077210;28;20036;-65
2023/12/11 04:02:28;;;;;;;31.88;6.18;;;9.50;99.90;;;;;;5069525;28;20078;-65
2023/12/11 04:04:54;;;;;;;41.83;5.95;;;9.50;99.90;;;;;;5066645;28;20033;-65
2023/12/11 04:07:19;;;;;;;37.30;5.75;;;9.50;99.90;;;;;;5088921;28;20039;-64
2023/12/11 04:09:45;;;;;;;49.50;6.80;;;9.50;99.90;;;;;;5077663;28;20035;-64
2023/12/11 04:12:10;;;;;;;39.97;6.53;;;9.50;99.90;;;;;;5073430;28;20438;-64
2023/12/11 04:14:36;;;;;;;40.30;5.97;;;9.50;99.90;;;;;;5074450;28;20036;-64
2023/12/11 04:17:02;;;;;;;38.17;6.25;;;9.50;99.90;;;;;;5072847;28;20028;-64
2023/12/11 04:19:27;;;;;;;37.13;5.78;;;9.50;99.90;;;;;;5070537;28;20115;-64
2023/12/11 04:21:53;;;;;;;33.40;5.72;;;9.50;99.90;;;;;;5070526;28;20090;-64
2023/12/11 04:24:18;;;;;;;34.47;6.28;;;9.50;99.90;;;;;;5077742;28;20071;-64
2023/12/11 04:26:44;;;;;;;34.60;6.80;;;9.50;99.90;;;;;;5067288;28;20045;-64
2023/12/11 04:29:09;;;;;;;41.92;6.55;;;9.50;99.90;;;;;;5049206;28;20032;-64
2023/12/11 04:31:35;;;;;;;38.88;6.90;;;9.50;99.90;;;;;;5054778;28;20071;-65
2023/12/11 04:34:01;;;;;;;41.58;5.97;;;9.50;99.90;;;;;;5071585;28;20070;-64
2023/12/11 04:36:26;;;;;;;43.95;6.68;;;9.50;99.90;;;;;;5067330;28;20503;-64
2023/12/11 04:38:52;;;;;;;41.83;6.47;;;9.50;99.90;;;;;;5079766;28;20479;-64
2023/12/11 04:41:17;;;;;;;40.10;6.25;;;9.50;99.90;;;;;;5077561;28;20112;-65
2023/12/11 04:43:44;;;;;;;34.92;6.18;;;9.40;99.90;;;;;;5075034;28;20044;-64
2023/12/11 04:46:09;;;;;;;42.28;6.22;;;9.40;99.90;;;;;;5066471;28;20036;-64
2023/12/11 04:48:35;;;;;;;39.35;6.00;;;9.40;99.90;;;;;;5072428;28;20047;-65
2023/12/11 04:51:00;;;;;;;37.08;6.40;;;9.40;99.90;;;;;;5073673;28;20112;-64
2023/12/11 04:53:26;;;;;;;49.72;7.30;;;9.40;99.90;;;;;;5072515;28;20101;-64
2023/12/11 04:55:51;;;;;;;44.67;6.20;;;9.40;99.90;;;;;;5072548;28;20039;-64
2023/12/11 04:58:17;;;;;;;40.55;6.82;;;9.30;99.90;;;;;;5076968;28;20044;-64
2023/12/11 05:00:43;;;;;;;52.10;7.30;;;9.30;99.90;;;;;;5074337;28;20174;-63
2023/12/11 05:03:08;;;;;;;53.35;7.50;;;9.30;99.90;;;;;;5069528;28;20039;-64
2023/12/11 05:05:35;;;;;;;41.05;7.05;;;9.30;99.90;;;;;;5071424;28;20036;-64
2023/12/11 05:08:01;;;;;;;39.58;6.50;;;9.30;99.90;;;;;;5073351;28;20039;-64
2023/12/11 05:10:27;;;;;;;47.92;6.63;;;9.30;99.90;;;;;;5063012;28;20028;-64
2023/12/11 05:12:52;;;;;;;38.20;6.45;;;9.30;99.90;;;;;;5072294;28;20029;-65
2023/12/11 05:15:18;;;;;;;44.40;6.28;;;9.30;99.90;;;;;;5072472;28;20151;-65
2023/12/11 05:17:44;;;;;;;41.55;6.90;;;9.40;99.90;;;;;;5071930;28;20094;-64
2023/12/11 05:20:12;;;;;;;28.13;4.93;;;9.40;99.90;;;;;;5071306;28;20380;-64
2023/12/11 05:22:38;;;;;;;36.10;6.30;;;9.40;99.90;;;;;;5071409;28;20114;-64
2023/12/11 05:25:04;;;;;;;35.10;5.00;;;9.40;99.90;;;;;;5069951;28;20040;-64
2023/12/11 05:27:30;;;;;;;35.53;6.15;;;9.40;99.90;;;;;;5062978;28;20032;-64
2023/12/11 05:29:55;;;;;;;39.67;6.30;;;9.40;99.90;;;;;;5071497;28;20032;-65
2023/12/11 05:32:21;;;;;;;45.83;6.57;;;9.40;99.90;;;;;;5052967;28;20040;-64
2023/12/11 05:34:46;;;;;;;32.75;4.93;;;9.40;99.90;;;;;;5069124;28;20068;-64
2023/12/11 05:37:12;;;;;;;42.33;5.97;;;9.40;99.90;;;;;;5071881;28;20044;-64
2023/12/11 05:39:38;;;;;;;41.15;6.88;;;9.40;99.90;;;;;;5071423;28;20033;-64
2023/12/11 05:42:03;;;;;;;42.33;5.95;;;9.40;99.90;;;;;;5071701;28;20036;-64
2023/12/11 05:44:29;;;;;;;36.22;5.65;;;9.40;99.90;;;;;;5067563;28;20036;-64
2023/12/11 05:46:54;;;;;;;27.55;6.03;;;9.40;99.90;;;;;;5071048;28;20094;-64
2023/12/11 05:49:20;;;;;;;35.35;6.15;;;9.40;99.90;;;;;;5071041;28;20115;-64
2023/12/11 05:51:45;;;;;;;32.15;5.00;;;9.40;99.90;;;;;;5070076;28;20033;-64
2023/12/11 05:54:11;;;;;;;34.28;5.28;;;9.40;99.90;;;;;;5066966;28;20728;-64
2023/12/11 05:56:37;;;;;;;39.88;5.50;;;9.40;99.90;;;;;;5070217;28;20044;-64
2023/12/11 05:59:02;;;;;;;27.85;4.80;;;9.40;99.90;;;;;;5071260;28;20064;-64
2023/12/11 06:01:29;;;;;;;40.50;6.55;;;9.40;99.90;;;;;;5048519;28;20044;-64
2023/12/11 06:03:55;;;;;;;45.75;6.18;;;9.30;99.90;;;;;;5070053;28;20036;-64
2023/12/11 06:06:20;;;;;;;40.55;6.50;;;9.40;99.90;;;;;;5074865;28;20394;-63
2023/12/11 06:08:46;;;;;;;43.45;7.90;;;9.30;99.90;;;;;;5071538;28;20098;-65
2023/12/11 06:11:11;;;;;;;54.63;7.00;;;9.30;99.90;;;;;;5070724;28;20507;-64
2023/12/11 06:13:37;;;;;;;36.72;6.13;;;9.30;99.90;;;;;;5076123;28;20040;-64
2023/12/11 06:16:03;;;;;;;42.95;6.20;;;9.40;99.90;;;;;;5070629;28;20124;-64
2023/12/11 06:18:28;;;;;;;41.90;6.35;;;9.40;99.90;;;;;;5070043;28;20037;-64
2023/12/11 06:20:54;;;;;;;44.95;6.38;;;9.40;99.90;;;;;;5074776;28;20037;-64
2023/12/11 06:23:22;;;;;;;46.67;6.68;;;9.40;99.90;;;;;;5067727;28;20501;-65
2023/12/11 06:25:47;;;;;;;51.65;6.80;;;9.40;99.90;;;;;;5064063;28;20160;-64
2023/12/11 06:28:13;;;;;;;44.63;6.15;;;9.40;99.90;;;;;;5070799;28;20119;-64
2023/12/11 06:30:38;;;;;;;37.42;6.75;;;9.40;99.90;;;;;;5053279;28;20028;-64
2023/12/11 06:33:05;;;;;;;41.45;6.03;;;9.40;99.90;;;;;;5077096;28;20032;-64
2023/12/11 06:35:30;;;;;;;36.78;4.90;;;9.40;99.90;;;;;;5068995;28;20040;-64
2023/12/11 06:37:56;;;;;;;43.92;6.32;;;9.40;99.90;;;;;;5075995;28;20043;-64
2023/12/11 06:40:21;;;;;;;44.88;6.30;;;9.40;99.90;;;;;;5077868;28;20033;-63
2023/12/11 06:42:47;;;;;;;37.42;5.60;;;9.40;99.90;;;;;;5073372;28;20486;-64
2023/12/11 06:45:12;;;;;;;37.17;6.07;;;9.40;99.90;;;;;;5063962;28;20036;-64
2023/12/11 06:47:38;;;;;;;36.72;6.38;;;9.40;99.90;;;;;;5067740;28;20044;-64
2023/12/11 06:50:04;;;;;;;45.90;6.60;;;9.40;99.90;;;;;;5062190;28;20036;-63
2023/12/11 06:52:30;;;;;;;34.83;6.10;;;9.40;99.90;;;;;;5057750;28;20487;-63
2023/12/11 06:54:55;;;;;;;35.65;5.43;;;9.40;99.90;;;;;;5074703;28;20059;-65
2023/12/11 06:57:21;;;;;;;28.55;4.60;;;9.40;99.90;;;;;;5075450;28;20036;-64
2023/12/11 06:59:47;;;;;;;33.47;5.07;;;9.40;99.90;;;;;;5075774;28;20079;-64
2023/12/11 07:02:12;;;;;;;31.38;5.38;;;9.40;99.90;;;;;;5059221;28;20044;-64
2023/12/11 07:04:41;;;;;;;27.50;5.15;;;9.30;99.90;;;;;;5070050;28;20098;-64
2023/12/11 07:07:07;;;;;;;29.00;4.80;;;9.40;99.90;;;;;;5070131;28;20062;-65
2023/12/11 07:09:32;;;;;;;38.88;5.20;;;9.30;99.90;;;;;;5071129;28;20035;-64
2023/12/11 07:11:58;;;;;;;34.97;5.47;;;9.30;99.90;;;;;;5073956;28;20050;-64
2023/12/11 07:14:24;;;;;;;37.20;5.13;;;9.30;99.90;;;;;;5065409;28;20070;-64
2023/12/11 07:16:50;;;;;;;31.67;5.18;;;9.30;99.90;;;;;;5063246;28;20037;-65
2023/12/11 07:19:16;;;;;;;32.03;5.30;;;9.30;99.90;;;;;;5065455;28;20036;-64
2023/12/11 07:21:45;;;;;;;29.45;4.68;;;9.30;99.90;;;;;;5066690;28;20047;-64
2023/12/11 07:24:11;;;;;;;26.10;4.05;;;9.30;99.90;;;;;;5063019;28;20466;-65
2023/12/11 07:26:37;;;;;;;33.03;5.32;;;9.30;99.90;;;;;;5039897;28;20045;-63
2023/12/11 07:29:04;;;;;;;27.50;4.63;;;9.20;99.90;;;;;;5046226;28;20122;-64
2023/12/11 07:31:29;;;;;;;23.48;4.50;;;9.20;99.90;;;;;;5069891;28;20033;-64
2023/12/11 07:33:55;;;;;;;29.08;4.45;;;9.30;99.90;;;;;;5069928;28;20043;-64
2023/12/11 07:36:21;;;;;;;20.00;3.38;;;9.30;99.90;;;;;;5051761;28;20059;-64
2023/12/11 07:38:47;;;;;;;29.08;5.25;;;9.30;99.90;;;;;;5052275;28;20525;-64
2023/12/11 07:41:19;;;;;;;19.27;4.68;;;9.30;99.90;;;;;;5070088;28;20072;-65
2023/12/11 07:43:45;;;;;;;22.98;4.00;;;9.30;99.90;;;;;;5051992;28;20095;-65
2023/12/11 07:46:18;;;;;;;21.38;3.60;;;9.20;99.90;;;;;;5065026;28;20048;-65
2023/12/11 07:48:44;;;;;;;26.25;3.70;;;9.30;99.90;;;;;;5067505;28;20051;-64
2023/12/11 07:51:25;;;;;;;16.10;3.58;;;9.20;99.90;;;;;;5062245;28;20402;-65
2023/12/11 07:53:58;;;;;;;17.40;3.15;;;9.20;99.90;;;;;;5067840;28;20043;-65
2023/12/11 07:56:24;;;;;;;21.20;3.55;;;9.20;99.90;;;;;;5060147;28;20037;-65
2023/12/11 07:58:51;;;;;;;18.27;3.17;;;9.20;99.90;;;;;;5068388;28;20094;-64
2023/12/11 08:01:17;;;;;;;20.60;3.30;;;9.20;99.90;;;;;;5066065;28;20072;-64
2023/12/11 08:03:43;;;;;;;14.48;3.10;;;9.20;99.90;;;;;;5069480;28;20471;-65
2023/12/11 08:06:09;;;;;;;20.02;3.33;;;9.20;99.90;;;;;;5062487;28;20094;-65
2023/12/11 08:08:40;;;;;;;14.77;3.03;;;9.20;99.90;;;;;;5068078;28;20024;-63
2023/12/11 08:11:29;;;;;;;19.40;4.20;;;9.20;99.90;;;;;;5041892;28;20039;-64
2023/12/11 08:13:54;;;;;;;16.27;3.10;;;9.20;99.90;;;;;;5068947;28;20025;-65
2023/12/11 08:16:22;;;;;;;22.65;3.50;;;9.20;99.90;;;;;;5075107;28;20040;-64
2023/12/11 08:18:48;;;;;;;15.40;3.33;;;9.20;99.90;;;;;;5067352;28;20093;-65
2023/12/11 08:21:17;;;;;;;14.45;2.95;;;9.20;99.90;;;;;;5068780;28;20115;-65
2023/12/11 08:23:47;;;;;;;15.05;3.03;;;9.20;99.90;;;;;;5063826;28;20052;-64
2023/12/11 08:26:18;;;;;;;17.25;2.83;;;9.10;99.90;;;;;;5045825;28;20094;-64
2023/12/11 08:28:44;;;;;;;14.00;3.05;;;9.10;99.90;;;;;;5066043;28;20068;-64
2023/12/11 08:31:09;;;;;;;16.98;2.90;;;9.10;99.90;;;;;;5061866;28;20079;-65
2023/12/11 08:33:36;;;;;;;13.90;2.78;;;9.10;99.90;;;;;;5059831;28;20028;-64
2023/12/11 08:36:02;;;;;;;11.95;2.45;;;9.10;99.90;;;;;;5062020;28;20048;-65
2023/12/11 08:38:28;;;;;;;10.25;2.80;;;9.10;99.90;;;;;;5069359;28;20059;-66
2023/12/11 08:40:54;;;;;;;13.05;3.05;;;9.10;99.90;;;;;;5071488;28;20036;-65
2023/12/11 08:43:19;;;;;;;14.20;2.78;;;9.10;99.90;;;;;;5068892;28;20785;-65
2023/12/11 08:45:45;;;;;;;15.38;2.78;;;9.10;99.90;;;;;;5070863;28;20403;-64
2023/12/11 08:48:10;;;;;;;14.77;3.50;;;9.10;99.90;;;;;;5050186;28;20045;-63
2023/12/11 08:50:36;;;;;;;17.77;3.03;;;9.20;99.90;;;;;;5068258;28;20097;-65
2023/12/11 08:53:03;;;;;;;13.90;3.28;;;9.20;99.90;;;;;;5063100;28;20028;-65
2023/12/11 08:55:29;;;;;;;17.17;3.92;;;9.20;99.90;;;;;;5060684;28;20045;-66
2023/12/11 08:57:55;;;;;;;18.80;3.47;;;9.20;99.90;;;;;;5068388;28;20409;-65
2023/12/11 09:00:21;;;;;;;29.00;4.32;;;9.20;99.90;;;;;;5069697;28;20036;-65
2023/12/11 09:02:47;;;;;;;27.27;4.20;;;9.10;99.90;;;;;;5060562;28;20059;-65
2023/12/11 09:05:13;;;;;;;28.05;4.70;;;9.10;99.90;;;;;;5068946;28;20490;-65
2023/12/11 09:07:38;;;;;;;23.45;4.15;;;9.10;99.90;;;;;;5067757;28;20063;-65
2023/12/11 09:10:07;;;;;;;33.33;4.25;;;9.10;99.90;;;;;;5062203;28;20035;-65
2023/12/11 09:12:33;;;;;;;28.23;4.68;;;9.10;99.90;;;;;;5069272;28;20036;-65
2023/12/11 09:14:58;;;;;;;30.15;4.53;;;9.20;99.90;;;;;;5069186;28;20036;-64
2023/12/11 09:17:24;;;;;;;26.42;4.85;;;9.20;99.90;;;;;;5067816;28;20039;-65
2023/12/11 09:19:49;;;;;;;25.25;4.53;;;9.20;99.90;;;;;;5051408;28;20044;-65
2023/12/11 09:22:15;;;;;;;20.27;4.10;;;9.20;99.90;;;;;;5069233;28;20029;-65
2023/12/11 09:24:41;;;;;;;26.33;4.25;;;9.20;99.90;;;;;;5067505;28;20125;-65
2023/12/11 09:27:07;;;;;;;29.17;4.28;;;9.20;99.90;;;;;;5067228;28;20254;-64
2023/12/11 09:29:33;;;;;;;19.17;3.85;;;9.20;99.90;;;;;;5069308;28;20070;-65
2023/12/11 09:31:59;;;;;;;20.40;4.10;;;9.20;99.90;;;;;;5069033;28;20487;-65
2023/12/11 09:34:24;;;;;;;21.38;3.90;;;9.20;99.90;;;;;;5068413;28;20398;-65
2023/12/11 09:36:50;;;;;;;25.23;3.72;;;9.20;99.90;;;;;;5068233;28;20119;-65
2023/12/11 09:39:16;;;;;;;22.35;3.83;;;9.30;99.90;;;;;;5069418;28;20033;-65
2023/12/11 09:41:44;;;;;;;24.38;3.63;;;9.30;99.90;;;;;;5050369;28;20059;-65
2023/12/11 09:44:10;;;;;;;19.77;3.03;;;9.30;99.90;;;;;;5068783;28;20040;-65
2023/12/11 09:46:58;;;;;;;22.27;3.45;;;9.30;99.90;;;;;;5067277;28;20487;-65
2023/12/11 09:49:24;;;;;;;16.50;3.45;;;9.30;99.90;;;;;;5025922;28;20074;-65
2023/12/11 09:51:51;;;;;;;23.73;3.10;;;9.30;99.90;;;;;;5068044;28;20037;-65
2023/12/11 09:54:17;;;;;;;18.15;3.50;;;9.40;99.90;;;;;;5050204;28;20242;-65
2023/12/11 09:56:43;;;;;;;19.30;3.10;;;9.40;99.90;;;;;;5067412;28;20495;-65
2023/12/11 09:59:10;;;;;;;21.15;3.78;;;9.40;99.90;;;;;;5068112;28;20045;-64
2023/12/11 10:01:36;;;;;;;20.98;3.17;;;9.40;99.90;;;;;;5067985;28;20475;-65
2023/12/11 10:04:02;;;;;;;20.65;3.47;;;9.50;99.90;;;;;;5060451;28;20535;-65
2023/12/11 10:06:28;;;;;;;15.60;3.05;;;9.50;99.90;;;;;;5064765;28;20068;-64
2023/12/11 10:08:54;;;;;;;16.15;3.40;;;9.50;99.90;;;;;;5067863;28;20120;-64
2023/12/11 10:11:22;;;;;;;24.58;3.85;;;9.50;99.90;;;;;;5050770;28;20036;-64
2023/12/11 10:13:49;;;;;;;24.35;2.85;;;9.50;99.90;;;;;;5068064;28;20043;-64
2023/12/11 10:16:32;;;;;;;17.50;2.42;;;9.50;99.90;;;;;;5064637;28;20037;-64
2023/12/11 10:19:00;;;;;;;24.98;3.78;;;9.50;99.90;;;;;;5063770;28;20048;-64
2023/12/11 10:21:33;;;;;;;22.95;4.03;;;9.50;99.90;;;;;;5059862;28;20094;-65
2023/12/11 10:24:09;;;;;;;18.98;2.78;;;9.50;99.90;;;;;;5061469;28;20040;-65
2023/12/11 10:26:43;;;;;;;25.83;3.83;;;9.50;99.90;;;;;;5059187;28;20086;-65
2023/12/11 10:29:23;;;;;;;22.05;3.83;;;9.50;99.90;;;;;;5067712;28;20029;-65
2023/12/11 10:31:50;;;;;;;19.60;3.10;;;9.50;99.90;;;;;;5068809;28;20115;-65
2023/12/11 10:34:15;;;;;;;24.15;3.58;;;9.40;99.90;;;;;;5056555;28;20376;-63
2023/12/11 10:36:51;;;;;;;21.52;3.95;;;9.40;99.90;;;;;;5064353;28;20070;-64
2023/12/11 10:39:19;;;;;;;24.98;3.28;;;9.40;99.90;;;;;;5061569;28;20044;-64
2023/12/11 10:41:46;;;;;;;26.15;3.35;;;9.40;99.90;;;;;;5060307;28;20036;-65
2023/12/11 10:44:25;;;;;;;22.38;3.40;;;9.30;99.90;;;;;;5048901;28;20392;-64
2023/12/11 10:46:54;;;;;;;16.58;2.50;;;9.30;99.90;;;;;;5057093;28;20048;-64
2023/12/11 10:49:21;;;;;;;18.60;2.75;;;9.30;99.90;;;;;;5061614;28;20112;-64
2023/12/11 10:51:47;;;;;;;18.67;3.28;;;9.20;99.90;;;;;;5066542;28;20530;-64
2023/12/11 10:54:13;;;;;;;14.38;3.50;;;9.30;99.90;;;;;;5049355;28;20047;-64
2023/12/11 10:56:46;;;;;;;15.00;2.97;;;9.30;99.90;;;;;;5065215;28;20044;-64
2023/12/11 10:59:12;;;;;;;20.23;3.92;;;9.30;99.90;;;;;;5066654;28;20111;-65
2023/12/11 11:01:44;;;;;;;13.32;2.60;;;9.30;99.90;;;;;;5049028;28;20087;-65
2023/12/11 11:04:11;;;;;;;19.25;3.72;;;9.30;99.90;;;;;;5064927;28;20036;-65
2023/12/11 11:06:46;;;;;;;19.95;2.95;;;9.40;99.90;;;;;;5067328;28;20044;-64
2023/12/11 11:09:18;;;;;;;19.75;3.20;;;9.40;99.90;;;;;;5065727;28;20487;-64
2023/12/11 11:11:52;;;;;;;23.48;3.58;;;9.40;99.90;;;;;;5066210;28;20055;-63
2023/12/11 11:14:35;;;;;;;17.13;3.80;;;9.40;99.90;;;;;;5067902;28;20024;-64
2023/12/11 11:17:01;;;;;;;21.52;4.72;;;9.50;99.90;;;;;;5050710;28;20125;-64
2023/12/11 11:19:29;;;;;;;18.80;4.05;;;9.40;99.90;;;;;;5065060;28;20103;-65
2023/12/11 11:22:03;;;;;;;19.88;4.47;;;9.40;99.90;;;;;;5067721;28;20159;-64
2023/12/11 11:24:30;;;;;;;29.77;4.72;;;9.40;99.90;;;;;;5067376;28;20447;-65
2023/12/11 11:27:00;;;;;;;26.98;5.47;;;9.40;99.90;;;;;;5067479;28;20029;-65
2023/12/11 11:29:42;;;;;;;24.88;5.20;;;9.40;99.90;;;;;;5056055;28;20048;-64
2023/12/11 11:32:09;;;;;;;25.40;5.07;;;9.30;99.90;;;;;;5056166;28;20087;-65
2023/12/11 11:34:42;;;;;;;29.13;5.97;;;9.30;99.90;;;;;;5063476;28;20127;-65
2023/12/11 11:37:11;;;;;;;33.15;8.63;;;9.30;99.90;;;;;;5057273;28;20036;-64
2023/12/11 11:40:03;;;;;;;38.63;10.32;;;9.30;99.90;;;;;;5062640;28;20063;-64
2023/12/11 11:42:33;;;;;;;28.42;6.38;;;9.20;99.90;;;;;;5062614;28;20491;-65
2023/12/11 11:45:01;;;;;;;21.33;5.65;;;9.20;99.90;;;;;;5059101;28;20510;-64
2023/12/11 11:47:28;;;;;;;22.55;4.43;;;9.20;99.90;;;;;;5060364;28;20095;-64
2023/12/11 11:50:02;;;;;;;25.00;4.20;;;9.20;99.90;;;;;;5066115;28;20048;-65
2023/12/11 11:52:28;;;;;;;28.90;4.53;;;9.20;99.90;;;;;;5054104;28;20037;-64
2023/12/11 11:55:07;;;;;;;27.08;6.47;;;9.20;99.90;;;;;;5042628;28;20047;-65
2023/12/11 11:57:33;;;;;;;24.23;3.63;;;9.10;99.90;;;;;;5062681;28;20033;-64
2023/12/11 11:59:59;;;;;;;18.60;2.97;;;9.20;99.90;;;;;;5065089;28;20497;-63
2023/12/11 12:02:27;;;;;;;18.95;3.42;;;9.20;99.90;;;;;;5066638;28;20044;-65
2023/12/11 12:04:53;;;;;;;17.42;3.22;;;9.20;99.90;;;;;;5061052;28;20045;-64
2023/12/11 12:07:18;;;;;;;25.42;4.40;;;9.20;99.90;;;;;;5045273;28;20119;-64
2023/12/11 12:09:49;;;;;;;13.25;2.55;;;9.20;99.90;;;;;;5049734;28;20075;-64
2023/12/11 12:12:15;;;;;;;13.10;3.17;;;9.20;99.90;;;;;;5057949;28;20075;-64
2023/12/11 12:14:41;;;;;;;16.63;3.00;;;9.20;99.90;;;;;;5056244;28;20072;-64
2023/12/11 12:17:10;;;;;;;14.50;2.58;;;9.20;99.90;;;;;;5054741;28;20327;-63
2023/12/11 12:19:36;;;;;;;10.60;2.30;;;9.30;99.90;;;;;;5065521;28;20051;-64
2023/12/11 12:22:02;;;;;;;11.77;1.90;;;9.30;99.90;;;;;;5062067;28;20036;-64
2023/12/11 12:24:29;;;;;;;14.15;3.15;;;9.40;99.90;;;;;;5060255;28;20032;-63
2023/12/11 12:27:02;;;;;;;17.42;3.33;;;9.40;99.90;;;;;;5059312;28;20083;-64
2023/12/11 12:29:30;;;;;;;10.93;1.73;;;9.30;99.90;;;;;;5063652;28;20040;-64
2023/12/11 12:31:57;;;;;;;11.25;2.50;;;9.30;99.90;;;;;;5062449;28;20593;-64
2023/12/11 12:34:25;;;;;;;8.07;1.65;;;9.30;99.90;;;;;;5054162;28;20437;-64
2023/12/11 12:36:54;;;;;;;8.05;1.77;;;9.30;99.90;;;;;;5058113;28;20553;-64
2023/12/11 12:39:20;;;;;;;9.10;1.73;;;9.30;99.90;;;;;;5064440;28;20683;-63
2023/12/11 12:41:51;;;;;;;10.93;1.85;;;9.30;99.90;;;;;;5050467;28;20054;-64
2023/12/11 12:44:18;;;;;;;10.45;1.40;;;9.30;99.90;;;;;;5069925;28;20044;-64
2023/12/11 12:46:44;;;;;;;8.20;1.70;;;9.20;99.90;;;;;;5070122;28;20049;-63